createdAt,value
2023-11-30T00:00:27.364Z,94467.16
2023-11-30T00:02:55.765Z,94458.22
2023-11-30T00:05:24.271Z,94463.75
2023-11-30T00:07:54.061Z,94460.53
2023-11-30T00:10:22.256Z,94459.97
2023-11-30T00:12:50.551Z,94458.59
2023-11-30T00:15:18.837Z,94463.84
2023-11-30T00:17:47.178Z,94463.06
2023-11-30T00:20:15.540Z,94465.69
2023-11-30T00:22:44.080Z,94467.28
2023-11-30T00:25:13.769Z,94475.72
2023-11-30T00:27:41.985Z,94474.94
2023-11-30T00:30:11.942Z,94468.09
2023-11-30T00:32:40.467Z,94466.25
2023-11-30T00:35:09.382Z,94468.88
2023-11-30T00:37:37.626Z,94477.56
2023-11-30T00:40:06.990Z,94474.38
2023-11-30T00:42:36.632Z,94469.13
2023-11-30T00:45:05.642Z,94470.72
2023-11-30T00:47:34.273Z,94474.59
2023-11-30T00:50:02.502Z,94471.19
2023-11-30T00:52:30.699Z,94473.25
2023-11-30T00:54:59.020Z,94468.25
2023-11-30T00:57:27.254Z,94477.94
2023-11-30T00:59:57.288Z,94477.94
2023-11-30T01:02:25.679Z,94474.75
2023-11-30T01:04:53.894Z,94474.75
2023-11-30T01:07:22.137Z,94469.50
2023-11-30T01:09:50.521Z,94480.47
2023-11-30T01:12:18.740Z,94479.69
2023-11-30T01:14:47.313Z,94485.19
2023-11-30T01:17:16.981Z,94484.59
2023-11-30T01:19:45.206Z,94486.66
2023-11-30T01:22:13.542Z,94488.72
2023-11-30T01:24:41.757Z,94490.53
2023-11-30T01:27:10.354Z,94488.41
2023-11-30T01:29:38.652Z,94485.34
2023-11-30T01:32:07.251Z,94485.81
2023-11-30T01:34:37.043Z,94488.44
2023-11-30T01:37:05.286Z,94482.75
2023-11-30T01:39:33.799Z,94490.84
2023-11-30T01:42:03.799Z,94487.66
2023-11-30T01:44:34.443Z,94487.00
2023-11-30T01:47:03.546Z,94486.66
2023-11-30T01:49:31.769Z,94493.94
2023-11-30T01:52:01.482Z,94496.03
2023-11-30T01:54:30.349Z,94498.66
2023-11-30T01:56:58.644Z,94493.88
2023-11-30T01:59:26.889Z,94486.56
2023-11-30T02:01:55.420Z,94486.56
2023-11-30T02:04:24.044Z,94474.81
2023-11-30T02:06:52.604Z,94479.94
2023-11-30T02:09:22.248Z,94474.91
2023-11-30T02:11:50.620Z,94470.47
2023-11-30T02:14:19.404Z,94472.31
2023-11-30T02:16:47.634Z,94470.72
2023-11-30T02:19:16.177Z,94465.22
2023-11-30T02:21:51.532Z,94466.59
2023-11-30T02:24:20.976Z,94462.16
2023-11-30T02:26:49.165Z,94457.13
2023-11-30T02:29:18.155Z,94457.03
2023-11-30T02:31:46.448Z,94446.19
2023-11-30T02:34:14.942Z,94462.50
2023-11-30T02:36:43.147Z,94458.28
2023-11-30T02:39:12.753Z,94457.72
2023-11-30T02:41:40.982Z,94467.53
2023-11-30T02:44:10.290Z,94469.13
2023-11-30T02:46:38.626Z,94471.19
2023-11-30T02:49:07.200Z,94472.78
2023-11-30T02:51:36.808Z,94465.38
2023-11-30T02:54:05.015Z,94467.41
2023-11-30T02:56:40.424Z,94462.66
2023-11-30T02:59:08.649Z,94463.22
2023-11-30T03:01:43.906Z,94464.78
2023-11-30T03:04:12.268Z,94467.31
2023-11-30T03:06:41.247Z,94473.59
2023-11-30T03:09:09.634Z,94463.00
2023-11-30T03:11:40.907Z,94464.25
2023-11-30T03:14:09.751Z,94464.25
2023-11-30T03:16:38.016Z,94460.69
2023-11-30T03:19:14.614Z,94458.31
2023-11-30T03:21:45.551Z,94454.56
2023-11-30T03:24:13.887Z,94462.06
2023-11-30T03:26:43.511Z,94461.84
2023-11-30T03:29:12.039Z,94452.38
2023-11-30T03:31:41.060Z,94447.47
2023-11-30T03:34:09.702Z,94451.13
2023-11-30T03:36:37.977Z,94453.28
2023-11-30T03:39:06.272Z,94442.72
2023-11-30T03:41:34.840Z,94450.31
2023-11-30T03:44:04.440Z,94445.44
2023-11-30T03:46:32.695Z,94443.03
2023-11-30T03:49:02.057Z,94449.28
2023-11-30T03:51:30.232Z,94439.84
2023-11-30T03:53:58.467Z,94448.16
2023-11-30T03:56:26.966Z,94443.94
2023-11-30T03:58:55.190Z,94433.56
2023-11-30T04:01:25.307Z,94432.91
2023-11-30T04:03:53.589Z,94428.09
2023-11-30T04:06:21.893Z,94430.84
2023-11-30T04:08:50.389Z,94429.81
2023-11-30T04:11:18.700Z,94439.72
2023-11-30T04:13:47.171Z,94447.00
2023-11-30T04:16:16.772Z,94435.16
2023-11-30T04:18:46.502Z,94449.50
2023-11-30T04:21:15.531Z,94450.97
2023-11-30T04:23:44.971Z,94463.50
2023-11-30T04:26:13.212Z,94456.00
2023-11-30T04:28:41.552Z,94458.19
2023-11-30T04:31:10.415Z,94450.09
2023-11-30T04:33:38.707Z,94453.25
2023-11-30T04:36:09.183Z,94446.91
2023-11-30T04:38:37.675Z,94445.53
2023-11-30T04:41:06.193Z,94458.75
2023-11-30T04:43:37.614Z,94444.06
2023-11-30T04:46:06.402Z,94447.69
2023-11-30T04:48:35.290Z,94438.00
2023-11-30T04:51:03.970Z,94438.59
2023-11-30T04:53:34.536Z,94431.97
2023-11-30T04:56:02.897Z,94440.84
2023-11-30T04:58:31.116Z,94440.84
2023-11-30T05:00:59.451Z,94440.28
2023-11-30T05:03:28.139Z,94429.78
2023-11-30T05:05:57.059Z,94434.69
2023-11-30T05:08:25.251Z,94439.91
2023-11-30T05:10:54.899Z,94436.84
2023-11-30T05:13:23.230Z,94445.66
2023-11-30T05:15:51.780Z,94438.34
2023-11-30T05:18:20.030Z,94433.91
2023-11-30T05:20:48.422Z,94437.69
2023-11-30T05:23:16.630Z,94438.34
2023-11-30T05:25:45.097Z,94438.72
2023-11-30T05:28:15.898Z,94439.50
2023-11-30T05:30:44.653Z,94444.53
2023-11-30T05:33:13.516Z,94440.09
2023-11-30T05:35:41.722Z,94436.66
2023-11-30T05:38:09.928Z,94433.25
2023-11-30T05:40:38.100Z,94438.13
2023-11-30T05:43:06.620Z,94441.34
2023-11-30T05:45:36.169Z,94445.56
2023-11-30T05:48:04.606Z,94439.28
2023-11-30T05:50:33.601Z,94434.84
2023-11-30T05:53:02.893Z,94435.63
2023-11-30T05:55:31.366Z,94432.44
2023-11-30T05:57:59.800Z,94429.91
2023-11-30T06:00:28.148Z,94428.44
2023-11-30T06:02:57.844Z,94431.97
2023-11-30T06:05:26.092Z,94429.69
2023-11-30T06:07:54.288Z,94426.13
2023-11-30T06:10:22.953Z,94428.88
2023-11-30T06:12:51.457Z,94422.34
2023-11-30T06:15:19.740Z,94432.69
2023-11-30T06:17:48.032Z,94432.00
2023-11-30T06:20:17.820Z,94441.56
2023-11-30T06:22:46.059Z,94444.25
2023-11-30T06:25:14.651Z,94444.72
2023-11-30T06:27:42.788Z,94447.28
2023-11-30T06:30:11.401Z,94441.34
2023-11-30T06:32:39.670Z,94448.47
2023-11-30T06:35:08.489Z,94446.97
2023-11-30T06:37:38.054Z,94448.28
2023-11-30T06:40:08.096Z,94446.34
2023-11-30T06:42:36.366Z,94455.06
2023-11-30T06:45:05.194Z,94457.53
2023-11-30T06:47:33.675Z,94465.81
2023-11-30T06:50:01.850Z,94463.28
2023-11-30T06:52:30.066Z,94463.50
2023-11-30T06:54:59.952Z,94465.53
2023-11-30T06:57:28.142Z,94469.59
2023-11-30T06:59:56.358Z,94473.88
2023-11-30T07:02:24.496Z,94476.56
2023-11-30T07:04:52.898Z,94475.59
2023-11-30T07:07:30.970Z,94469.81
2023-11-30T07:10:03.836Z,94459.91
2023-11-30T07:12:32.120Z,94455.28
2023-11-30T07:15:00.702Z,94470.38
2023-11-30T07:17:29.119Z,94466.41
2023-11-30T07:19:57.612Z,94464.63
2023-11-30T07:22:26.462Z,94464.06
2023-11-30T07:24:54.825Z,94462.22
2023-11-30T07:27:25.210Z,94465.28
2023-11-30T07:29:53.403Z,94467.91
2023-11-30T07:32:21.551Z,94466.13
2023-11-30T07:34:50.030Z,94469.56
2023-11-30T07:37:19.172Z,94462.50
2023-11-30T07:39:47.651Z,94471.16
2023-11-30T07:42:26.126Z,94467.94
2023-11-30T07:45:03.530Z,94466.13
2023-11-30T07:47:32.490Z,94477.84
2023-11-30T07:50:01.123Z,94488.09
2023-11-30T07:52:30.234Z,94482.41
2023-11-30T07:54:58.512Z,94480.75
2023-11-30T07:57:26.708Z,94480.09
2023-11-30T07:59:55.263Z,94471.41
2023-11-30T08:02:24.799Z,94481.59
2023-11-30T08:04:53.078Z,94483.53
2023-11-30T08:07:22.045Z,94469.22
2023-11-30T08:09:50.350Z,94467.34
2023-11-30T08:12:18.667Z,94460.88
2023-11-30T08:14:47.089Z,94452.16
2023-11-30T08:17:15.557Z,94460.00
2023-11-30T08:19:45.374Z,94451.13
2023-11-30T08:22:15.039Z,94445.84
2023-11-30T08:24:44.325Z,94439.50
2023-11-30T08:27:13.200Z,94434.63
2023-11-30T08:29:41.380Z,94445.66
2023-11-30T08:32:09.675Z,94437.59
2023-11-30T08:34:37.829Z,94440.00
2023-11-30T08:37:07.489Z,94441.25
2023-11-30T08:39:36.034Z,94437.25
2023-11-30T08:42:04.386Z,94434.06
2023-11-30T08:44:36.125Z,94432.31
2023-11-30T08:47:04.319Z,94434.81
2023-11-30T08:49:32.467Z,94429.28
2023-11-30T08:52:00.925Z,94428.16
2023-11-30T08:54:30.578Z,94427.50
2023-11-30T08:56:59.526Z,94419.41
2023-11-30T08:59:27.878Z,94433.53
2023-11-30T09:01:56.524Z,94430.56
2023-11-30T09:04:24.798Z,94431.47
2023-11-30T09:06:53.265Z,94428.72
2023-11-30T09:09:21.418Z,94428.59
2023-11-30T09:11:51.023Z,94428.75
2023-11-30T09:14:19.203Z,94441.16
2023-11-30T09:16:47.458Z,94436.72
2023-11-30T09:19:15.932Z,94440.03
2023-11-30T09:21:44.138Z,94447.13
2023-11-30T09:24:12.395Z,94443.16
2023-11-30T09:26:43.138Z,94438.75
2023-11-30T09:29:14.184Z,94426.50
2023-11-30T09:31:43.470Z,94428.53
2023-11-30T09:34:13.097Z,94427.97
2023-11-30T09:36:41.469Z,94416.81
2023-11-30T09:39:10.308Z,94420.97
2023-11-30T09:41:39.668Z,94425.53
2023-11-30T09:44:08.067Z,94415.78
2023-11-30T09:46:37.742Z,94418.13
2023-11-30T09:49:10.121Z,94414.88
2023-11-30T09:51:38.623Z,94420.56
2023-11-30T09:54:06.883Z,94415.50
2023-11-30T09:56:35.085Z,94415.91
2023-11-30T09:59:04.108Z,94419.56
2023-11-30T10:01:32.649Z,94415.81
2023-11-30T10:04:12.420Z,94418.31
2023-11-30T10:06:40.772Z,94415.53
2023-11-30T10:09:11.132Z,94402.94
2023-11-30T10:11:39.355Z,94402.13
2023-11-30T10:14:08.251Z,94399.00
2023-11-30T10:16:36.766Z,94393.00
2023-11-30T10:19:08.355Z,94380.41
2023-11-30T10:21:39.018Z,94376.19
2023-11-30T10:24:09.183Z,94378.81
2023-11-30T10:26:37.899Z,94373.59
2023-11-30T10:29:08.041Z,94371.56
2023-11-30T10:31:37.747Z,94362.72
2023-11-30T10:34:12.803Z,94368.56
2023-11-30T10:36:41.523Z,94352.78
2023-11-30T10:39:18.169Z,94359.84
2023-11-30T10:41:52.012Z,94367.47
2023-11-30T10:44:27.603Z,94347.19
2023-11-30T10:46:57.081Z,94353.81
2023-11-30T10:49:27.412Z,94348.28
2023-11-30T10:51:59.265Z,94349.31
2023-11-30T10:54:33.357Z,94338.94
2023-11-30T10:57:02.020Z,94334.19
2023-11-30T10:59:30.837Z,94335.22
2023-11-30T11:01:59.254Z,94324.69
2023-11-30T11:04:29.220Z,94324.97
2023-11-30T11:07:04.305Z,94318.13
2023-11-30T11:09:43.551Z,94312.13
2023-11-30T11:12:21.852Z,94315.34
2023-11-30T11:14:50.803Z,94312.25
2023-11-30T11:17:21.881Z,94308.25
2023-11-30T11:19:51.434Z,94305.19
2023-11-30T11:22:22.817Z,94315.19
2023-11-30T11:24:51.113Z,94310.97
2023-11-30T11:27:29.741Z,94310.16
2023-11-30T11:29:58.687Z,94307.22
2023-11-30T11:32:26.941Z,94309.66
2023-11-30T11:34:56.599Z,94301.25
2023-11-30T11:37:24.786Z,94295.75
2023-11-30T11:39:53.514Z,94295.50
2023-11-30T11:42:21.760Z,94301.31
2023-11-30T11:44:51.158Z,94297.38
2023-11-30T11:47:19.404Z,94292.66
2023-11-30T11:49:47.730Z,94301.44
2023-11-30T11:52:22.223Z,94297.72
2023-11-30T11:55:00.721Z,94299.31
2023-11-30T11:57:36.166Z,94287.97
2023-11-30T12:00:05.294Z,94296.44
2023-11-30T12:02:35.073Z,94281.72
2023-11-30T12:05:11.112Z,94286.78
2023-11-30T12:07:50.661Z,94284.72
2023-11-30T12:10:30.405Z,94288.47
2023-11-30T12:12:59.145Z,94286.66
2023-11-30T12:15:27.429Z,94279.59
2023-11-30T12:17:56.100Z,94263.25
2023-11-30T12:20:24.481Z,94264.59
2023-11-30T12:22:54.057Z,94261.19
2023-11-30T12:25:22.400Z,94263.88
2023-11-30T12:27:51.417Z,94270.50
2023-11-30T12:30:20.106Z,94263.13
2023-11-30T12:32:50.189Z,94265.78
2023-11-30T12:35:18.521Z,94254.97
2023-11-30T12:37:46.915Z,94266.03
2023-11-30T12:40:16.646Z,94263.63
2023-11-30T12:42:44.902Z,94261.47
2023-11-30T12:45:13.713Z,94252.72
2023-11-30T12:47:42.767Z,94266.19
2023-11-30T12:50:12.131Z,94269.84
2023-11-30T12:52:40.476Z,94268.81
2023-11-30T12:55:09.925Z,94266.19
2023-11-30T12:57:40.805Z,94263.00
2023-11-30T13:00:37.269Z,94270.69
2023-11-30T13:03:05.505Z,94266.44
2023-11-30T13:05:33.710Z,94271.44
2023-11-30T13:08:02.024Z,94261.66
2023-11-30T13:10:30.260Z,94258.72
2023-11-30T13:13:00.234Z,94261.31
2023-11-30T13:15:28.524Z,94253.34
2023-11-30T13:17:56.852Z,94255.47
2023-11-30T13:20:25.857Z,94242.00
2023-11-30T13:22:54.082Z,94245.66
2023-11-30T13:25:23.325Z,94245.66
2023-11-30T13:27:51.863Z,94248.06
2023-11-30T13:30:21.668Z,94252.78
2023-11-30T13:32:49.965Z,94248.81
2023-11-30T13:35:18.251Z,94244.84
2023-11-30T13:37:46.684Z,94235.06
2023-11-30T13:40:15.987Z,94232.94
2023-11-30T13:42:44.564Z,94243.97
2023-11-30T13:45:12.884Z,94242.38
2023-11-30T13:47:48.627Z,94238.41
2023-11-30T13:50:26.215Z,94232.31
2023-11-30T13:52:59.797Z,94233.59
2023-11-30T13:55:28.893Z,94228.00
2023-11-30T13:57:57.362Z,94235.63
2023-11-30T14:00:25.680Z,94234.28
2023-11-30T14:02:55.505Z,94235.56
2023-11-30T14:05:23.732Z,94234.25
2023-11-30T14:07:52.625Z,94232.66
2023-11-30T14:10:21.228Z,94241.03
2023-11-30T14:12:49.461Z,94233.63
2023-11-30T14:15:17.707Z,94237.06
2023-11-30T14:17:46.002Z,94224.94
2023-11-30T14:20:16.367Z,94223.09
2023-11-30T14:22:46.086Z,94225.22
2023-11-30T14:25:15.053Z,94219.16
2023-11-30T14:27:45.019Z,94216.22
2023-11-30T14:30:14.597Z,94216.69
2023-11-30T14:32:42.898Z,94222.97
2023-11-30T14:35:13.217Z,94222.91
2023-11-30T14:37:43.401Z,94227.34
2023-11-30T14:40:14.565Z,94233.31
2023-11-30T14:42:42.980Z,94233.84
2023-11-30T14:45:13.634Z,94235.34
2023-11-30T14:47:44.538Z,94233.72
2023-11-30T14:50:13.208Z,94233.13
2023-11-30T14:52:45.873Z,94236.16
2023-11-30T14:55:14.616Z,94240.56
2023-11-30T14:57:44.218Z,94241.56
2023-11-30T15:00:16.158Z,94256.78
2023-11-30T15:02:44.539Z,94242.75
2023-11-30T15:05:15.444Z,94247.97
2023-11-30T15:07:45.412Z,94256.56
2023-11-30T15:10:13.715Z,94256.03
2023-11-30T15:12:41.951Z,94258.91
2023-11-30T15:15:14.855Z,94260.72
2023-11-30T15:17:45.609Z,94257.31
2023-11-30T15:20:14.697Z,94266.22
2023-11-30T15:22:43.592Z,94269.09
2023-11-30T15:25:18.933Z,94266.97
2023-11-30T15:27:48.225Z,94269.28
2023-11-30T15:30:17.141Z,94261.06
2023-11-30T15:32:45.758Z,94257.09
2023-11-30T15:35:13.922Z,94239.97
2023-11-30T15:37:47.322Z,94245.25
2023-11-30T15:40:17.890Z,94237.59
2023-11-30T15:42:46.651Z,94237.34
2023-11-30T15:45:17.933Z,94233.13
2023-11-30T15:47:46.494Z,94222.88
2023-11-30T15:50:14.697Z,94232.81
2023-11-30T15:52:43.314Z,94237.28
2023-11-30T15:55:12.620Z,94238.56
2023-11-30T15:57:42.500Z,94239.84
2023-11-30T16:00:13.276Z,94243.72
2023-11-30T16:02:42.096Z,94249.22
2023-11-30T16:05:11.053Z,94248.94
2023-11-30T16:07:39.229Z,94243.59
2023-11-30T16:10:08.989Z,94242.50
2023-11-30T16:12:37.216Z,94241.94
2023-11-30T16:15:10.364Z,94243.19
2023-11-30T16:17:38.667Z,94242.88
2023-11-30T16:20:11.468Z,94238.69
2023-11-30T16:22:40.337Z,94242.88
2023-11-30T16:25:09.505Z,94247.31
2023-11-30T16:27:38.084Z,94251.25
2023-11-30T16:30:10.081Z,94248.63
2023-11-30T16:32:38.391Z,94252.28
2023-11-30T16:35:07.330Z,94251.47
2023-11-30T16:37:35.546Z,94253.31
2023-11-30T16:40:04.270Z,94253.53
2023-11-30T16:42:32.764Z,94242.47
2023-11-30T16:45:01.295Z,94238.19
2023-11-30T16:47:30.880Z,94237.88
2023-11-30T16:49:59.106Z,94235.72
2023-11-30T16:52:27.300Z,94235.47
2023-11-30T16:54:55.759Z,94228.72
2023-11-30T16:57:24.734Z,94238.75
2023-11-30T16:59:52.897Z,94226.09
2023-11-30T17:02:21.095Z,94226.56
2023-11-30T17:04:50.982Z,94227.84
2023-11-30T17:07:20.384Z,94231.19
2023-11-30T17:09:49.808Z,94230.38
2023-11-30T17:12:18.270Z,94226.41
2023-11-30T17:14:46.449Z,94218.22
2023-11-30T17:17:14.622Z,94212.41
2023-11-30T17:19:42.832Z,94218.69
2023-11-30T17:22:13.049Z,94210.25
2023-11-30T17:24:43.088Z,94211.53
2023-11-30T17:27:11.397Z,94208.34
2023-11-30T17:29:41.072Z,94210.19
2023-11-30T17:32:09.913Z,94222.09
2023-11-30T17:34:38.405Z,94226.00
2023-11-30T17:37:07.014Z,94224.41
2023-11-30T17:39:36.688Z,94217.31
2023-11-30T17:42:05.044Z,94223.84
2023-11-30T17:44:33.232Z,94218.59
2023-11-30T17:47:01.477Z,94222.00
2023-11-30T17:49:29.972Z,94221.47
2023-11-30T17:51:58.152Z,94231.47
2023-11-30T17:54:26.345Z,94227.47
2023-11-30T17:56:55.883Z,94228.28
2023-11-30T17:59:24.159Z,94225.66
2023-11-30T18:01:52.595Z,94227.19
2023-11-30T18:04:20.976Z,94229.00
2023-11-30T18:06:49.311Z,94241.56
2023-11-30T18:09:17.504Z,94236.47
2023-11-30T18:11:45.721Z,94240.28
2023-11-30T18:14:15.323Z,94232.28
2023-11-30T18:16:43.622Z,94231.41
2023-11-30T18:19:12.890Z,94217.16
2023-11-30T18:21:41.208Z,94209.53
2023-11-30T18:24:09.456Z,94216.53
2023-11-30T18:26:37.718Z,94218.81
2023-11-30T18:29:06.018Z,94213.78
2023-11-30T18:31:36.235Z,94205.38
2023-11-30T18:34:04.616Z,94214.16
2023-11-30T18:36:32.881Z,94221.72
2023-11-30T18:39:01.174Z,94220.13
2023-11-30T18:41:29.436Z,94225.38
2023-11-30T18:43:57.896Z,94224.69
2023-11-30T18:46:26.057Z,94231.66
2023-11-30T18:48:55.757Z,94219.59
2023-11-30T18:51:29.492Z,94223.25
2023-11-30T18:53:57.855Z,94224.19
2023-11-30T18:56:28.666Z,94226.00
2023-11-30T18:58:57.195Z,94216.91
2023-11-30T19:01:26.072Z,94224.97
2023-11-30T19:03:55.843Z,94222.28
2023-11-30T19:06:25.492Z,94222.81
2023-11-30T19:08:54.183Z,94217.81
2023-11-30T19:11:23.252Z,94213.63
2023-11-30T19:13:51.778Z,94218.66
2023-11-30T19:16:21.878Z,94215.69
2023-11-30T19:18:51.237Z,94214.09
2023-11-30T19:21:21.025Z,94216.34
2023-11-30T19:23:49.373Z,94219.91
2023-11-30T19:26:17.947Z,94210.66
2023-11-30T19:28:46.158Z,94216.69
2023-11-30T19:31:15.589Z,94213.41
2023-11-30T19:33:43.902Z,94208.84
2023-11-30T19:36:12.644Z,94212.84
2023-11-30T19:38:42.526Z,94204.75
2023-11-30T19:41:10.870Z,94210.66
2023-11-30T19:43:39.000Z,94199.16
2023-11-30T19:46:07.570Z,94211.47
2023-11-30T19:48:35.896Z,94214.66
2023-11-30T19:51:05.746Z,94229.00
2023-11-30T19:53:34.174Z,94239.16
2023-11-30T19:56:03.697Z,94224.34
2023-11-30T19:58:32.144Z,94233.44
2023-11-30T20:01:00.385Z,94225.59
2023-11-30T20:03:28.709Z,94230.28
2023-11-30T20:05:57.132Z,94229.47
2023-11-30T20:08:25.311Z,94237.88
2023-11-30T20:10:53.476Z,94237.13
2023-11-30T20:13:23.175Z,94238.59
2023-11-30T20:15:51.426Z,94232.56
2023-11-30T20:18:19.814Z,94230.50
2023-11-30T20:20:48.454Z,94232.31
2023-11-30T20:23:16.717Z,94234.59
2023-11-30T20:25:44.991Z,94240.31
2023-11-30T20:28:13.248Z,94235.16
2023-11-30T20:30:42.910Z,94234.00
2023-11-30T20:33:11.208Z,94237.34
2023-11-30T20:35:39.710Z,94240.97
2023-11-30T20:38:07.921Z,94231.53
2023-11-30T20:40:36.200Z,94245.63
2023-11-30T20:43:04.888Z,94240.63
2023-11-30T20:45:33.601Z,94233.47
2023-11-30T20:48:03.517Z,94233.91
2023-11-30T20:50:31.748Z,94233.00
2023-11-30T20:53:01.312Z,94239.25
2023-11-30T20:55:29.446Z,94236.28
2023-11-30T20:57:57.953Z,94244.03
2023-11-30T21:00:26.229Z,94250.66
2023-11-30T21:02:54.876Z,94260.31
2023-11-30T21:05:24.469Z,94258.94
2023-11-30T21:07:52.673Z,94262.00
2023-11-30T21:10:20.840Z,94257.09
2023-11-30T21:12:50.191Z,94261.75
2023-11-30T21:15:18.875Z,94259.34
2023-11-30T21:17:47.131Z,94258.00
2023-11-30T21:20:15.406Z,94255.72
2023-11-30T21:22:44.997Z,94260.03
2023-11-30T21:25:14.801Z,94256.75
2023-11-30T21:27:43.056Z,94256.03
2023-11-30T21:30:12.286Z,94255.69
2023-11-30T21:32:40.431Z,94265.41
2023-11-30T21:35:09.207Z,94267.00
2023-11-30T21:37:37.373Z,94278.41
2023-11-30T21:40:08.050Z,94270.91
2023-11-30T21:42:36.751Z,94276.38
2023-11-30T21:45:05.523Z,94295.34
2023-11-30T21:47:36.260Z,94290.13
2023-11-30T21:50:15.072Z,94289.19
2023-11-30T21:52:43.433Z,94276.66
2023-11-30T21:55:13.282Z,94280.50
2023-11-30T21:57:41.968Z,94281.53
2023-11-30T22:00:13.401Z,94289.78
2023-11-30T22:02:41.683Z,94283.13
2023-11-30T22:05:11.231Z,94290.88
2023-11-30T22:07:40.743Z,94287.13
2023-11-30T22:10:10.429Z,94283.66
2023-11-30T22:12:40.006Z,94290.00
2023-11-30T22:15:09.440Z,94285.16
2023-11-30T22:17:37.736Z,94286.84
2023-11-30T22:20:06.757Z,94285.28
2023-11-30T22:22:35.560Z,94285.44
2023-11-30T22:25:04.205Z,94277.47
2023-11-30T22:27:32.465Z,94283.88
2023-11-30T22:30:02.208Z,94274.75
2023-11-30T22:32:30.448Z,94279.53
2023-11-30T22:34:58.695Z,94282.25
2023-11-30T22:37:27.365Z,94278.97
2023-11-30T22:39:55.568Z,94276.94
2023-11-30T22:42:26.229Z,94284.00
2023-11-30T22:44:54.666Z,94281.38
2023-11-30T22:47:24.276Z,94269.31
2023-11-30T22:49:53.461Z,94272.50
2023-11-30T22:52:22.777Z,94284.00
2023-11-30T22:54:51.743Z,94286.38
2023-11-30T22:57:20.061Z,94291.94
2023-11-30T22:59:48.306Z,94285.81
2023-11-30T23:02:16.683Z,94285.34
2023-11-30T23:04:46.836Z,94276.25
2023-11-30T23:07:33.545Z,94276.69
2023-11-30T23:10:01.893Z,94268.31
2023-11-30T23:12:30.216Z,94265.09
2023-11-30T23:14:58.461Z,94264.53
2023-11-30T23:17:27.020Z,94255.53
2023-11-30T23:19:57.021Z,94262.84
2023-11-30T23:22:25.230Z,94264.66
2023-11-30T23:24:53.492Z,94264.50
2023-11-30T23:27:22.059Z,94260.31
2023-11-30T23:29:50.350Z,94257.47
2023-11-30T23:32:18.882Z,94264.75
2023-11-30T23:34:47.581Z,94261.09
2023-11-30T23:37:17.251Z,94264.28
2023-11-30T23:39:45.612Z,94269.53
2023-11-30T23:42:13.969Z,94270.09
2023-11-30T23:44:42.799Z,94269.53
2023-11-30T23:47:11.278Z,94267.34
2023-11-30T23:49:39.671Z,94268.84
2023-11-30T23:52:08.162Z,94265.06
2023-11-30T23:54:37.975Z,94262.47
2023-11-30T23:57:06.602Z,94259.25
2023-11-30T23:59:35.128Z,94263.47
